createdAt,value
2022-08-18T00:01:25.640Z,18.17
2022-08-18T00:03:59.385Z,18.18
2022-08-18T00:06:31.058Z,18.20
2022-08-18T00:09:00.739Z,18.26
2022-08-18T00:11:41.588Z,18.20
2022-08-18T00:14:22.524Z,18.17
2022-08-18T00:16:53.942Z,18.16
2022-08-18T00:19:43.680Z,18.12
2022-08-18T00:22:15.402Z,18.16
2022-08-18T00:24:50.984Z,18.21
2022-08-18T00:27:23.180Z,18.12
2022-08-18T00:29:52.045Z,18.12
2022-08-18T00:32:26.802Z,18.11
2022-08-18T00:34:54.872Z,18.10
2022-08-18T00:37:24.001Z,18.08
2022-08-18T00:39:55.493Z,18.08
2022-08-18T00:42:31.330Z,18.07
2022-08-18T00:45:05.181Z,18.06
2022-08-18T00:47:42.304Z,18.02
2022-08-18T00:50:28.014Z,17.98
2022-08-18T00:53:06.087Z,17.98
2022-08-18T00:55:35.012Z,17.97
2022-08-18T00:58:17.005Z,17.97
2022-08-18T01:00:46.911Z,17.96
2022-08-18T01:03:24.552Z,17.96
2022-08-18T01:06:04.919Z,17.96
2022-08-18T01:08:32.968Z,17.95
2022-08-18T01:11:03.919Z,17.95
2022-08-18T01:13:34.091Z,17.96
2022-08-18T01:16:22.414Z,17.96
2022-08-18T01:19:08.655Z,17.93
2022-08-18T01:21:53.180Z,17.90
2022-08-18T01:24:44.665Z,17.93
2022-08-18T01:27:19.487Z,17.94
2022-08-18T01:29:50.633Z,17.93
2022-08-18T01:32:24.412Z,17.93
2022-08-18T01:34:53.487Z,17.95
2022-08-18T01:37:24.323Z,17.97
2022-08-18T01:41:23.807Z,17.95
2022-08-18T01:42:40.869Z,17.96
2022-08-18T01:45:09.323Z,17.95
2022-08-18T01:47:47.846Z,17.92
2022-08-18T01:50:26.396Z,17.91
2022-08-18T01:52:54.774Z,17.87
2022-08-18T01:55:22.882Z,17.85
2022-08-18T01:57:50.910Z,17.83
2022-08-18T02:00:20.158Z,17.83
2022-08-18T02:02:58.696Z,17.82
2022-08-18T02:05:37.748Z,17.95
2022-08-18T02:08:07.034Z,17.94
2022-08-18T02:10:36.432Z,17.95
2022-08-18T02:13:04.164Z,17.94
2022-08-18T02:15:33.243Z,17.95
2022-08-18T02:18:00.935Z,17.94
2022-08-18T02:20:28.874Z,17.90
2022-08-18T02:22:56.607Z,17.98
2022-08-18T02:25:24.289Z,18.36
2022-08-18T02:27:52.451Z,18.52
2022-08-18T02:30:20.590Z,18.47
2022-08-18T02:32:48.821Z,18.45
2022-08-18T02:35:16.737Z,18.39
2022-08-18T02:37:49.018Z,18.46
2022-08-18T02:40:18.249Z,18.65
2022-08-18T02:42:47.703Z,18.79
2022-08-18T02:45:15.669Z,18.99
2022-08-18T02:47:44.509Z,19.15
2022-08-18T02:50:13.919Z,19.15
2022-08-18T02:52:42.400Z,19.03
2022-08-18T02:55:10.934Z,18.94
2022-08-18T02:57:44.597Z,18.83
2022-08-18T03:00:16.224Z,18.69
2022-08-18T03:02:52.538Z,18.59
2022-08-18T03:05:20.403Z,18.50
2022-08-18T03:07:48.166Z,18.43
2022-08-18T03:10:32.283Z,18.37
2022-08-18T03:13:01.428Z,18.25
2022-08-18T03:15:29.188Z,18.17
2022-08-18T03:17:57.288Z,18.11
2022-08-18T03:20:30.787Z,18.08
2022-08-18T03:22:59.589Z,18.12
2022-08-18T03:25:33.709Z,18.06
2022-08-18T03:28:01.494Z,18.04
2022-08-18T03:30:29.139Z,18.00
2022-08-18T03:32:56.854Z,18.18
2022-08-18T03:35:24.537Z,18.36
2022-08-18T03:37:52.678Z,18.45
2022-08-18T03:40:20.793Z,18.37
2022-08-18T03:42:48.461Z,18.39
2022-08-18T03:45:17.699Z,18.51
2022-08-18T03:47:46.906Z,18.68
2022-08-18T03:50:14.722Z,18.60
2022-08-18T03:52:42.491Z,18.55
2022-08-18T03:55:10.776Z,18.66
2022-08-18T03:57:39.369Z,18.72
2022-08-18T04:00:08.242Z,18.61
2022-08-18T04:02:35.898Z,18.48
2022-08-18T04:05:05.374Z,18.36
2022-08-18T04:07:33.448Z,18.27
2022-08-18T04:10:01.225Z,18.22
2022-08-18T04:12:28.940Z,18.13
2022-08-18T04:14:56.581Z,18.06
2022-08-18T04:17:27.003Z,17.96
2022-08-18T04:19:56.396Z,17.91
2022-08-18T04:22:25.976Z,17.84
2022-08-18T04:24:54.907Z,17.79
2022-08-18T04:27:23.927Z,17.76
2022-08-18T04:29:51.968Z,17.70
2022-08-18T04:32:20.569Z,17.70
2022-08-18T04:34:48.307Z,17.87
2022-08-18T04:37:17.056Z,17.85
2022-08-18T04:39:45.639Z,18.05
2022-08-18T04:42:13.550Z,18.01
2022-08-18T04:44:41.345Z,17.91
2022-08-18T04:47:10.504Z,17.88
2022-08-18T04:49:38.286Z,17.84
2022-08-18T04:52:39.867Z,17.81
2022-08-18T04:55:09.785Z,17.77
2022-08-18T04:57:37.663Z,17.71
2022-08-18T05:00:07.257Z,17.69
2022-08-18T05:02:34.993Z,17.66
2022-08-18T05:05:04.894Z,17.63
2022-08-18T05:07:33.032Z,17.63
2022-08-18T05:10:00.766Z,17.62
2022-08-18T05:12:29.973Z,17.61
2022-08-18T05:14:58.041Z,17.58
2022-08-18T05:17:30.423Z,17.61
2022-08-18T05:20:02.682Z,17.65
2022-08-18T05:22:31.961Z,17.97
2022-08-18T05:25:01.257Z,17.93
2022-08-18T05:27:34.146Z,17.93
2022-08-18T05:30:03.437Z,18.36
2022-08-18T05:32:47.091Z,18.75
2022-08-18T05:35:22.130Z,18.81
2022-08-18T05:38:04.870Z,18.72
2022-08-18T05:40:33.065Z,19.11
2022-08-18T05:43:01.447Z,19.03
2022-08-18T05:45:29.491Z,18.90
2022-08-18T05:48:01.025Z,18.82
2022-08-18T05:50:30.560Z,18.75
2022-08-18T05:53:05.571Z,18.60
2022-08-18T05:56:18.473Z,18.39
2022-08-18T05:58:51.916Z,18.25
2022-08-18T06:01:25.114Z,18.50
2022-08-18T06:04:02.733Z,18.50
2022-08-18T06:06:33.105Z,18.49
2022-08-18T06:09:29.101Z,18.40
2022-08-18T06:12:23.762Z,18.33
2022-08-18T06:14:51.905Z,18.38
2022-08-18T06:17:32.259Z,18.41
2022-08-18T06:20:20.119Z,18.45
2022-08-18T06:22:59.715Z,18.46
2022-08-18T06:25:56.623Z,18.50
2022-08-18T06:28:24.595Z,18.52
2022-08-18T06:31:12.093Z,18.50
2022-08-18T06:33:40.477Z,18.47
2022-08-18T06:36:21.750Z,18.50
2022-08-18T06:39:05.610Z,18.47
2022-08-18T06:41:59.716Z,18.50
2022-08-18T06:44:41.678Z,18.54
2022-08-18T06:47:19.179Z,18.48
2022-08-18T06:50:04.137Z,18.45
2022-08-18T06:52:34.639Z,18.46
2022-08-18T06:55:08.172Z,18.50
2022-08-18T06:57:39.648Z,18.48
2022-08-18T07:00:32.568Z,18.52
2022-08-18T07:03:09.023Z,18.59
2022-08-18T07:05:38.400Z,18.63
2022-08-18T07:08:15.571Z,18.67
2022-08-18T07:10:49.539Z,18.69
2022-08-18T07:13:30.338Z,18.72
2022-08-18T07:16:56.554Z,18.70
2022-08-18T07:19:21.814Z,18.75
2022-08-18T07:22:10.444Z,18.78
2022-08-18T07:24:47.133Z,18.87
2022-08-18T07:27:21.498Z,18.92
2022-08-18T07:30:09.369Z,19.01
2022-08-18T07:32:52.392Z,19.09
2022-08-18T07:35:29.094Z,19.19
2022-08-18T07:38:18.638Z,19.25
2022-08-18T07:41:15.707Z,19.32
2022-08-18T07:44:04.530Z,19.38
2022-08-18T07:46:36.577Z,19.41
2022-08-18T07:49:05.702Z,19.43
2022-08-18T07:51:58.198Z,19.43
2022-08-18T07:54:57.804Z,19.46
2022-08-18T07:57:41.863Z,19.47
2022-08-18T08:00:26.781Z,19.50
2022-08-18T08:03:44.293Z,19.51
2022-08-18T08:06:28.707Z,19.51
2022-08-18T08:09:18.074Z,19.53
2022-08-18T08:11:59.731Z,19.54
2022-08-18T08:14:29.980Z,19.57
2022-08-18T08:17:06.032Z,19.60
2022-08-18T08:19:58.993Z,19.66
2022-08-18T08:22:31.767Z,19.70
2022-08-18T08:25:22.630Z,19.75
2022-08-18T08:28:04.170Z,19.79
2022-08-18T08:30:36.962Z,19.87
2022-08-18T08:33:20.531Z,19.96
2022-08-18T08:36:04.020Z,20.04
2022-08-18T08:38:42.693Z,20.04
2022-08-18T08:41:23.127Z,20.08
2022-08-18T08:44:01.607Z,20.16
2022-08-18T08:46:35.022Z,20.22
2022-08-18T08:49:28.935Z,20.30
2022-08-18T08:52:03.473Z,20.34
2022-08-18T08:54:58.092Z,20.34
2022-08-18T08:57:35.083Z,20.44
2022-08-18T09:00:06.299Z,20.49
2022-08-18T09:03:07.743Z,20.53
2022-08-18T09:05:56.781Z,20.64
2022-08-18T09:08:43.975Z,20.81
2022-08-18T09:11:40.965Z,20.93
2022-08-18T09:14:14.786Z,21.11
2022-08-18T09:17:18.558Z,21.24
2022-08-18T09:19:59.808Z,21.35
2022-08-18T09:22:53.210Z,21.46
2022-08-18T09:25:42.945Z,21.56
2022-08-18T09:28:29.116Z,21.67
2022-08-18T09:31:02.952Z,21.77
2022-08-18T09:33:41.935Z,21.80
2022-08-18T09:36:37.359Z,21.88
2022-08-18T09:39:48.050Z,22.00
2022-08-18T09:42:49.881Z,22.08
2022-08-18T09:45:34.314Z,22.15
2022-08-18T09:48:20.658Z,22.17
2022-08-18T09:51:24.487Z,22.16
2022-08-18T09:53:55.062Z,22.23
2022-08-18T09:56:54.449Z,22.25
2022-08-18T09:59:35.432Z,22.30
2022-08-18T10:02:33.100Z,22.31
2022-08-18T10:05:16.809Z,22.32
2022-08-18T10:07:54.348Z,22.41
2022-08-18T10:11:00.502Z,22.47
2022-08-18T10:13:48.270Z,22.58
2022-08-18T10:16:57.546Z,22.63
2022-08-18T10:19:49.815Z,22.66
2022-08-18T10:22:44.662Z,22.78
2022-08-18T10:25:22.687Z,22.80
2022-08-18T10:28:06.529Z,22.82
2022-08-18T10:30:56.754Z,22.82
2022-08-18T10:34:00.985Z,22.82
2022-08-18T10:36:45.909Z,22.84
2022-08-18T10:39:22.158Z,22.92
2022-08-18T10:42:19.263Z,22.87
2022-08-18T10:44:51.594Z,22.88
2022-08-18T10:47:33.687Z,22.87
2022-08-18T10:50:06.337Z,22.86
2022-08-18T10:55:50.121Z,22.86
2022-08-18T10:58:24.071Z,22.84
2022-08-18T11:01:14.326Z,22.87
2022-08-18T11:04:13.850Z,22.87
2022-08-18T11:06:48.871Z,22.87
2022-08-18T11:09:30.284Z,22.82
2022-08-18T11:12:03.195Z,22.79
2022-08-18T11:15:23.133Z,22.84
2022-08-18T11:18:18.204Z,22.82
2022-08-18T11:20:47.404Z,22.87
2022-08-18T11:23:18.326Z,22.96
2022-08-18T11:25:46.317Z,22.97
2022-08-18T11:28:23.077Z,23.02
2022-08-18T11:30:58.881Z,22.98
2022-08-18T11:33:28.861Z,23.00
2022-08-18T11:36:02.165Z,23.02
2022-08-18T11:38:33.162Z,23.08
2022-08-18T11:41:20.487Z,23.13
2022-08-18T11:43:50.441Z,23.19
2022-08-18T11:46:28.106Z,23.25
2022-08-18T11:49:01.616Z,23.30
2022-08-18T11:51:33.203Z,23.36
2022-08-18T11:54:23.235Z,23.42
2022-08-18T11:56:52.365Z,23.54
2022-08-18T11:59:52.562Z,23.63
2022-08-18T12:02:22.834Z,23.73
2022-08-18T12:04:57.380Z,23.77
2022-08-18T12:07:57.570Z,23.84
2022-08-18T12:10:29.750Z,23.86
2022-08-18T12:13:01.358Z,23.85
2022-08-18T12:15:44.300Z,23.90
2022-08-18T12:18:28.450Z,23.97
2022-08-18T12:21:02.754Z,24.02
2022-08-18T12:23:38.326Z,24.09
2022-08-18T12:26:07.233Z,24.14
2022-08-18T12:28:54.944Z,24.23
2022-08-18T12:31:42.395Z,24.30
2022-08-18T12:34:24.907Z,24.27
2022-08-18T12:36:57.916Z,24.21
2022-08-18T12:39:26.168Z,24.19
2022-08-18T12:41:53.979Z,24.21
2022-08-18T12:44:21.849Z,24.24
2022-08-18T12:46:50.289Z,24.27
2022-08-18T12:49:25.227Z,24.26
2022-08-18T12:51:56.564Z,24.27
2022-08-18T12:54:26.593Z,24.26
2022-08-18T12:56:58.724Z,24.27
2022-08-18T12:59:27.241Z,24.35
2022-08-18T13:02:00.786Z,24.42
2022-08-18T13:04:28.747Z,24.44
2022-08-18T13:07:01.967Z,24.50
2022-08-18T13:09:53.995Z,24.54
2022-08-18T13:12:24.257Z,24.52
2022-08-18T13:14:52.359Z,24.62
2022-08-18T13:17:32.061Z,24.50
2022-08-18T13:20:14.248Z,24.47
2022-08-18T13:22:42.666Z,24.31
2022-08-18T13:25:33.183Z,24.24
2022-08-18T13:28:03.368Z,24.22
2022-08-18T13:30:32.882Z,24.20
2022-08-18T13:33:05.225Z,24.14
2022-08-18T13:35:52.301Z,24.10
2022-08-18T13:38:25.677Z,24.11
2022-08-18T13:40:59.036Z,24.09
2022-08-18T13:43:37.889Z,24.06
2022-08-18T13:46:09.313Z,24.09
2022-08-18T13:48:38.888Z,24.06
2022-08-18T13:51:12.081Z,24.03
2022-08-18T13:53:52.202Z,23.99
2022-08-18T13:56:31.665Z,23.96
2022-08-18T13:58:59.646Z,23.91
2022-08-18T14:01:51.353Z,23.80
2022-08-18T14:04:20.448Z,23.77
2022-08-18T14:06:56.266Z,23.75
2022-08-18T14:09:35.760Z,23.73
2022-08-18T14:12:15.513Z,23.67
2022-08-18T14:14:52.377Z,23.64
2022-08-18T14:17:22.284Z,23.61
2022-08-18T14:20:15.390Z,23.57
2022-08-18T14:23:10.628Z,23.54
2022-08-18T14:25:57.328Z,23.50
2022-08-18T14:28:28.516Z,23.46
2022-08-18T14:30:58.114Z,23.42
2022-08-18T14:33:34.525Z,23.40
2022-08-18T14:36:18.289Z,23.35
2022-08-18T14:38:46.272Z,23.31
2022-08-18T14:41:19.973Z,23.28
2022-08-18T14:44:11.629Z,23.23
2022-08-18T14:46:41.855Z,23.19
2022-08-18T14:49:29.438Z,23.12
2022-08-18T14:52:02.031Z,23.09
2022-08-18T14:54:32.978Z,23.06
2022-08-18T14:57:06.530Z,22.97
2022-08-18T14:59:37.766Z,22.89
2022-08-18T15:02:07.665Z,22.85
2022-08-18T15:04:56.087Z,22.80
2022-08-18T15:07:26.079Z,22.76
2022-08-18T15:10:14.980Z,22.71
2022-08-18T15:12:42.395Z,22.68
2022-08-18T15:15:17.998Z,22.63
2022-08-18T15:17:52.337Z,22.60
2022-08-18T15:20:28.680Z,22.56
2022-08-18T15:23:22.887Z,22.51
2022-08-18T15:25:56.522Z,22.47
2022-08-18T15:28:27.426Z,22.44
2022-08-18T15:33:43.265Z,22.34
2022-08-18T15:36:28.804Z,22.34
2022-08-18T15:38:57.873Z,22.31
2022-08-18T15:41:44.069Z,22.26
2022-08-18T15:44:12.308Z,22.22
2022-08-18T15:46:40.403Z,22.19
2022-08-18T15:49:14.925Z,22.13
2022-08-18T15:51:45.593Z,22.09
2022-08-18T15:54:13.522Z,22.06
2022-08-18T15:56:43.347Z,22.00
2022-08-18T15:59:12.718Z,21.93
2022-08-18T16:01:43.469Z,21.85
2022-08-18T16:04:11.792Z,21.81
2022-08-18T16:06:41.982Z,21.75
2022-08-18T16:09:13.423Z,21.65
2022-08-18T16:11:42.115Z,21.57
2022-08-18T16:14:10.285Z,21.50
2022-08-18T16:16:38.337Z,21.39
2022-08-18T16:19:07.783Z,21.27
2022-08-18T16:21:41.160Z,21.16
2022-08-18T16:24:09.615Z,21.04
2022-08-18T16:26:37.273Z,20.94
2022-08-18T16:29:05.018Z,20.85
2022-08-18T16:31:32.701Z,20.71
2022-08-18T16:34:00.382Z,20.54
2022-08-18T16:36:28.102Z,20.42
2022-08-18T16:38:58.654Z,20.30
2022-08-18T16:41:27.652Z,20.22
2022-08-18T16:43:55.805Z,20.12
2022-08-18T16:46:28.204Z,20.01
2022-08-18T16:48:58.096Z,19.93
2022-08-18T16:51:29.388Z,19.82
2022-08-18T16:53:57.079Z,19.66
2022-08-18T16:56:27.722Z,19.55
2022-08-18T16:59:14.981Z,19.43
2022-08-18T17:02:01.959Z,19.27
2022-08-18T17:04:34.787Z,19.12
2022-08-18T17:07:07.291Z,19.00
2022-08-18T17:09:35.998Z,18.89
2022-08-18T17:12:03.947Z,18.75
2022-08-18T17:14:33.166Z,18.65
2022-08-18T17:17:01.648Z,18.57
2022-08-18T17:19:34.285Z,18.53
2022-08-18T17:22:04.360Z,18.48
2022-08-18T17:24:32.764Z,18.42
2022-08-18T17:27:26.430Z,18.39
2022-08-18T17:30:04.810Z,18.37
2022-08-18T17:32:55.331Z,18.33
2022-08-18T17:35:29.053Z,18.33
2022-08-18T17:38:16.242Z,18.29
2022-08-18T17:40:50.513Z,18.27
2022-08-18T17:43:21.204Z,18.21
2022-08-18T17:45:56.076Z,18.19
2022-08-18T17:48:29.752Z,18.18
2022-08-18T17:51:29.686Z,18.13
2022-08-18T17:54:02.076Z,18.10
2022-08-18T17:56:37.466Z,18.07
2022-08-18T17:59:46.181Z,18.05
2022-08-18T18:02:29.919Z,17.98
2022-08-18T18:05:00.387Z,17.93
2022-08-18T18:07:39.530Z,17.91
2022-08-18T18:10:10.430Z,17.90
2022-08-18T18:12:39.825Z,17.90
2022-08-18T18:15:11.385Z,17.85
2022-08-18T18:17:42.721Z,17.86
2022-08-18T18:20:19.563Z,17.85
2022-08-18T18:22:47.305Z,17.82
2022-08-18T18:25:34.315Z,17.79
2022-08-18T18:28:02.784Z,17.77
2022-08-18T18:30:30.957Z,17.68
2022-08-18T18:33:04.006Z,17.62
2022-08-18T18:35:54.857Z,17.58
2022-08-18T18:38:25.785Z,17.55
2022-08-18T18:41:13.431Z,17.51
2022-08-18T18:43:47.921Z,17.50
2022-08-18T18:46:20.351Z,17.50
2022-08-18T18:49:15.979Z,17.48
2022-08-18T18:52:07.287Z,17.50
2022-08-18T18:54:50.459Z,17.50
2022-08-18T18:58:00.946Z,17.53
2022-08-18T19:00:53.884Z,17.53
2022-08-18T19:03:27.513Z,17.52
2022-08-18T19:06:00.784Z,17.48
2022-08-18T19:08:40.783Z,17.43
2022-08-18T19:11:45.990Z,17.41
2022-08-18T19:14:22.080Z,17.41
2022-08-18T19:16:52.784Z,17.41
2022-08-18T19:19:36.805Z,17.41
2022-08-18T19:22:18.773Z,17.43
2022-08-18T19:24:55.367Z,17.42
2022-08-18T19:27:39.308Z,17.43
2022-08-18T19:30:12.974Z,17.48
2022-08-18T19:32:45.394Z,17.47
2022-08-18T19:35:23.185Z,17.48
2022-08-18T19:38:08.935Z,17.52
2022-08-18T19:40:39.519Z,17.54
2022-08-18T19:43:13.652Z,17.55
2022-08-18T19:46:03.153Z,17.55
2022-08-18T19:48:44.045Z,17.57
2022-08-18T19:51:39.618Z,17.60
2022-08-18T19:54:10.328Z,17.64
2022-08-18T19:56:53.749Z,17.65
2022-08-18T19:59:51.673Z,17.62
2022-08-18T20:02:39.894Z,17.67
2022-08-18T20:05:24.994Z,17.67
2022-08-18T20:08:13.003Z,17.66
2022-08-18T20:11:12.084Z,17.67
2022-08-18T20:13:43.557Z,17.67
2022-08-18T20:16:28.535Z,17.67
2022-08-18T20:19:39.422Z,17.66
2022-08-18T20:22:16.173Z,17.66
2022-08-18T20:25:00.706Z,17.66
2022-08-18T20:27:39.753Z,17.64
2022-08-18T20:30:34.210Z,17.64
2022-08-18T20:33:11.107Z,17.62
2022-08-18T20:35:53.066Z,17.61
2022-08-18T20:38:37.562Z,17.57
2022-08-18T20:41:44.718Z,17.56
2022-08-18T20:44:30.691Z,17.51
2022-08-18T20:47:16.179Z,17.50
2022-08-18T20:50:08.910Z,17.49
2022-08-18T20:52:57.329Z,17.45
2022-08-18T20:55:53.390Z,17.39
2022-08-18T20:58:26.406Z,17.37
2022-08-18T21:00:58.161Z,17.36
2022-08-18T21:03:39.593Z,17.33
2022-08-18T21:06:08.578Z,17.38
2022-08-18T21:08:38.694Z,17.39
2022-08-18T21:11:21.054Z,17.43
2022-08-18T21:14:04.055Z,17.54
2022-08-18T21:16:46.627Z,17.63
2022-08-18T21:19:21.699Z,17.51
2022-08-18T21:21:52.845Z,17.44
2022-08-18T21:24:38.776Z,17.39
2022-08-18T21:27:16.195Z,17.34
2022-08-18T21:29:49.102Z,17.32
2022-08-18T21:32:28.914Z,17.28
2022-08-18T21:34:56.581Z,17.26
2022-08-18T21:37:24.270Z,17.24
2022-08-18T21:39:57.810Z,17.22
2022-08-18T21:42:31.175Z,17.25
2022-08-18T21:45:01.103Z,17.27
2022-08-18T21:47:35.802Z,17.25
2022-08-18T21:50:17.268Z,17.23
2022-08-18T21:53:01.790Z,17.22
2022-08-18T21:55:48.391Z,17.22
2022-08-18T21:58:18.669Z,17.25
2022-08-18T22:01:11.760Z,17.23
2022-08-18T22:04:01.950Z,17.35
2022-08-18T22:06:35.457Z,17.30
2022-08-18T22:09:30.922Z,17.25
2022-08-18T22:12:41.963Z,17.43
2022-08-18T22:15:20.665Z,17.44
2022-08-18T22:17:54.002Z,17.39
2022-08-18T22:20:39.339Z,17.36
2022-08-18T22:23:27.783Z,17.38
2022-08-18T22:26:13.461Z,17.35
2022-08-18T22:29:11.348Z,17.33
2022-08-18T22:31:42.851Z,17.32
2022-08-18T22:34:14.666Z,17.26
2022-08-18T22:36:46.667Z,17.28
2022-08-18T22:39:23.700Z,17.28
2022-08-18T22:41:51.441Z,17.32
2022-08-18T22:44:19.149Z,17.30
2022-08-18T22:46:46.870Z,17.32
2022-08-18T22:49:14.565Z,17.32
2022-08-18T22:51:42.433Z,17.34
2022-08-18T22:54:11.971Z,17.39
2022-08-18T22:56:40.234Z,17.36
2022-08-18T22:59:22.705Z,17.33
2022-08-18T23:01:52.198Z,17.34
2022-08-18T23:04:22.236Z,17.37
2022-08-18T23:06:53.228Z,17.37
2022-08-18T23:09:32.532Z,17.38
2022-08-18T23:12:11.135Z,17.40
2022-08-18T23:14:39.233Z,17.36
2022-08-18T23:17:08.852Z,17.32
2022-08-18T23:19:36.509Z,17.33
2022-08-18T23:22:06.258Z,17.32
2022-08-18T23:24:33.933Z,17.30
2022-08-18T23:27:01.720Z,17.30
2022-08-18T23:29:29.436Z,17.28
2022-08-18T23:31:57.082Z,17.28
2022-08-18T23:34:25.778Z,17.28
2022-08-18T23:36:57.927Z,17.28
2022-08-18T23:39:26.818Z,17.26
2022-08-18T23:41:55.371Z,17.28
2022-08-18T23:44:27.341Z,17.32
2022-08-18T23:46:56.575Z,17.30
2022-08-18T23:49:24.565Z,17.30
2022-08-18T23:51:55.468Z,17.30
2022-08-18T23:54:28.213Z,17.28
2022-08-18T23:56:56.170Z,17.26
2022-08-18T23:59:25.700Z,17.21
